Date,TemperatureHighF,TemperatureAvgF,TemperatureLowF,DewpointHighF,DewpointAvgF,DewpointLowF,HumidityHigh,HumidityAvg,HumidityLow,PressureMaxIn,PressureMinIn,WindSpeedMaxMPH,WindSpeedAvgMPH,GustSpeedMaxMPH,PrecipitationSumIn
2013-11-1,77.3,72.0,69.6,70.3,67.3,65.9,89,85,79,30.01,29.91,11,1,11,0.78
2013-11-2,79.4,71.3,66.2,71.7,66.2,62.2,89,84,69,30.01,29.92,16,1,16,0.32
2013-11-3,79.2,72.1,66.7,70.0,65.5,62.4,88,80,66,30.01,29.89,10,1,10,0.32
2013-11-4,77.4,71.1,67.1,71.2,66.8,63.5,89,86,76,29.97,29.87,5,0,5,0.82
2013-11-5,78.0,70.6,66.7,71.1,66.5,63.1,90,87,72,29.95,29.85,13,1,13,0.34
2013-11-6,80.0,72.1,68.0,72.7,66.9,64.3,90,84,67,29.91,29.80,9,1,9,0.01
2013-11-7,79.4,72.6,67.1,71.5,67.3,62.1,89,84,73,29.93,29.82,9,1,9,0.14
2013-11-8,80.2,73.4,69.1,72.1,67.2,65.1,90,81,66,29.93,29.80,9,1,9,0.07
2013-11-9,79.4,71.3,66.3,69.8,65.6,60.0,88,82,68,29.87,29.75,9,1,9,0.13
2013-11-10,80.3,72.2,66.8,68.1,65.5,63.0,89,80,63,29.88,29.74,17,1,18,0.37
2013-11-11,72.5,68.1,65.2,66.9,63.2,60.6,88,84,78,29.91,29.81,14,1,14,0.94
2013-11-12,77.6,69.6,64.0,65.8,62.3,59.3,86,78,64,29.93,29.83,6,0,6,0.63
2013-11-13,78.9,71.2,66.3,68.1,64.6,61.1,89,80,61,29.95,29.85,9,1,9,0.21
2013-11-14,78.9,75.4,71.0,73.1,70.7,67.3,89,85,81,29.94,29.83,9,1,9,0.39
2013-11-15,80.7,73.9,67.1,73.7,67.9,63.2,91,82,68,30.01,29.90,13,1,13,0.01
2013-11-16,80.9,73.3,66.4,69.7,66.1,62.4,89,79,61,30.00,29.89,14,1,14,0.10
2013-11-17,82.6,73.1,66.8,71.3,66.2,63.0,91,80,56,29.95,29.83,11,1,11,0.11
2013-11-18,81.3,72.5,66.3,70.2,66.1,62.6,91,81,61,29.93,29.82,13,1,13,0.11
2013-11-19,75.8,70.4,65.2,71.1,66.3,61.5,91,87,79,29.93,29.83,7,0,7,0.13
2013-11-20,81.7,73.0,65.9,72.8,66.7,62.6,91,81,64,29.93,29.82,10,1,10,0.03
2013-11-21,78.7,72.5,67.5,72.4,67.8,64.0,90,85,75,29.95,29.85,7,1,7,0.00
2013-11-22,82.8,72.8,65.9,71.4,65.7,60.0,90,79,65,29.96,29.86,11,1,11,0.00
2013-11-23,77.4,70.1,63.6,67.8,63.9,59.0,88,81,67,29.94,29.84,11,1,11,0.08
2013-11-24,79.6,71.2,63.0,65.6,61.5,56.8,88,72,57,29.92,29.84,16,2,16,0.01
2013-11-25,78.9,70.5,64.6,67.9,63.2,59.9,88,78,62,30.01,29.89,10,1,10,0.08
2013-11-26,79.6,70.8,62.5,69.9,64.2,58.9,89,80,64,30.04,29.93,9,1,14,0.08
2013-11-27,80.0,71.1,63.1,67.5,63.9,59.5,90,79,59,30.02,29.89,10,1,10,0.00
2013-11-28,81.5,71.5,64.1,66.8,63.1,59.4,89,76,48,29.97,29.85,10,2,12,0.04
2013-11-29,78.7,70.8,65.4,70.6,65.8,61.1,90,85,70,29.95,29.85,13,1,13,0.34
2013-11-30,80.2,72.1,67.3,69.3,66.5,63.6,90,83,66,29.98,29.86,16,1,16,0.28